MET'MAP v2.0
soon released !

Expected late october,
this new version will be
more efficient, smarter,
and hosted on a brand new
server x3 powerfull...
...and still free !


Not compatible ?
Try the mobile version !

LOG IN : | Subscribe | Disclaimer | Who is Orbifly ? |
ICAO code :
Legend : VFR Marginal VFR IFR Intensive IFR Very Intensive IFR
Visi :
Ceiling :
>= 8 km
>= 3000ft
5 to 8 km
1000 to 3000 ft
1500m to 5 km
500 to 1000 ft
800 to 1500m
200 to 500 ft
< 800m
< 200 ft

METAR - EPKK Krakow-Balice - 29 May 2020 10:35 UTC - Data Source NOAA   


- Airport Elevation : 791 ft
- IATA code : KRK
- No reported NOTAMs.


EPKK - Krakow-Balice

Latest METAR recorded : 2015/08/11 08:00 EPKK 110800Z 08005KT CAVOK 27/19 Q1016
TAF TAF EPKK
Valid from the 29 at 06:00 until the 30 at 06:00 UTC


290530Z 2906/3006 33010KT 9999 BKN020
PROB40
TEMPO 2906/2910 3000 SHRA BKN007 BKN017CB
TEMPO 2910/2920 36015G25KT SCT020CB
BECMG 3000/3003 VRB02KT

Source NOAA


MET'MAP, your aeronautical weather chart ! - Copyright ORBIFLY December 2007

Programming & Development : Alexandra Zaïnal
Co-Developer : Marc-Olivier Méhu
Technical & hardware support : Manuel Goepfert
Concept & Financing : Baudouin d'Aumeries